Time;durP1;ratioP1;P1;durP2;ratioP2;P2;SDS_P1;SDS_P2;PMS_P1;PMS_P2;Temp;Humidity;BMP_temperature;BMP_pressure;BME280_temperature;BME280_humidity;BME280_pressure;Samples;Min_cycle;Max_cycle;Signal;HPM_P1;HPM_P2
2022/12/12 00:01:54;;;;;;;17.97;7.90;;;;;-1.10;95366.00;;;;8348539;28;20224;-74
2022/12/12 00:06:02;;;;;;;19.13;8.03;;;;;-1.10;95365.00;;;;8347876;28;21758;-74
2022/12/12 00:10:06;;;;;;;20.07;8.60;;;;;-1.10;95365.00;;;;8349313;28;20262;-74
2022/12/12 00:14:12;;;;;;;16.73;8.17;;;;;-1.10;95367.00;;;;8348928;28;20287;-75
2022/12/12 00:18:15;;;;;;;19.40;8.80;;;;;-1.20;95367.00;;;;8350259;28;20196;-74
2022/12/12 00:22:20;;;;;;;21.43;9.90;;;;;-1.20;95371.00;;;;8346846;28;20193;-73
2022/12/12 00:26:25;;;;;;;22.47;9.60;;;;;-1.20;95374.00;;;;8348879;28;20227;-74
2022/12/12 00:30:28;;;;;;;24.40;9.60;;;;;-1.20;95378.00;;;;8347625;28;20663;-74
2022/12/12 00:34:31;;;;;;;20.80;10.13;;;;;-1.20;95373.00;;;;8347007;28;20211;-73
2022/12/12 00:38:36;;;;;;;18.77;9.23;;;;;-1.20;95381.00;;;;8345156;28;20571;-74
2022/12/12 00:42:39;;;;;;;22.63;9.90;;;;;-1.20;95381.00;;;;8350450;28;20202;-73
2022/12/12 00:46:42;;;;;;;19.77;9.27;;;;;-1.20;95382.00;;;;8345339;28;21086;-73
2022/12/12 00:50:46;;;;;;;20.97;9.57;;;;;-1.20;95387.00;;;;8342558;28;20212;-75
2022/12/12 00:54:51;;;;;;;25.30;9.97;;;;;-1.20;95385.00;;;;8350537;28;20205;-76
2022/12/12 00:58:54;;;;;;;24.63;11.27;;;;;-1.20;95385.00;;;;8337602;28;20194;-75
2022/12/12 01:02:57;;;;;;;22.53;10.43;;;;;-1.20;95392.00;;;;8336491;28;20219;-75
2022/12/12 01:07:01;;;;;;;28.00;10.50;;;;;-1.20;95395.00;;;;8348129;28;20225;-75
2022/12/12 01:11:06;;;;;;;24.13;10.60;;;;;-1.20;95398.00;;;;8352322;28;20242;-75
2022/12/12 01:15:10;;;;;;;25.70;10.63;;;;;-1.20;95394.00;;;;8339564;28;20199;-75
2022/12/12 01:19:14;;;;;;;24.87;9.87;;;;;-1.20;95404.00;;;;8356364;28;20192;-75
2022/12/12 01:23:17;;;;;;;25.07;10.77;;;;;-1.20;95407.00;;;;8348267;28;20242;-75
2022/12/12 01:27:22;;;;;;;25.03;11.37;;;;;-1.20;95407.00;;;;8353855;28;20221;-75
2022/12/12 01:31:25;;;;;;;28.50;11.40;;;;;-1.10;95402.00;;;;8345233;28;20199;-74
2022/12/12 01:35:29;;;;;;;24.57;11.47;;;;;-1.10;95411.00;;;;8352365;28;20632;-75
2022/12/12 01:39:32;;;;;;;28.67;11.67;;;;;-1.20;95415.00;;;;8353222;28;20205;-75
2022/12/12 01:43:36;;;;;;;30.23;12.33;;;;;-1.10;95414.00;;;;8356131;28;20260;-75
2022/12/12 01:47:39;;;;;;;30.17;11.93;;;;;-1.10;95409.00;;;;8351216;28;20228;-74
2022/12/12 01:51:44;;;;;;;28.37;11.93;;;;;-1.10;95418.00;;;;8354611;28;20654;-75
2022/12/12 01:55:48;;;;;;;29.20;12.10;;;;;-1.20;95417.00;;;;8350849;28;20190;-76
2022/12/12 01:59:53;;;;;;;27.57;11.87;;;;;-1.20;95418.00;;;;8353567;28;20208;-74
2022/12/12 02:03:58;;;;;;;27.07;12.33;;;;;-1.20;95416.00;;;;8349741;28;20224;-74
2022/12/12 02:08:03;;;;;;;31.60;11.63;;;;;-1.20;95418.00;;;;8350693;28;20225;-75
2022/12/12 02:12:07;;;;;;;25.90;10.43;;;;;-1.20;95421.00;;;;8351524;28;20204;-74
2022/12/12 02:16:17;;;;;;;28.20;12.00;;;;;-1.30;95424.00;;;;8350154;28;20205;-74
2022/12/12 02:20:40;;;;;;;29.67;11.10;;;;;-1.30;95429.00;;;;8352638;28;20744;-73
2022/12/12 02:24:59;;;;;;;31.73;11.33;;;;;-1.30;95421.00;;;;8345260;28;20197;-73
2022/12/12 02:29:24;;;;;;;26.63;11.57;;;;;-1.30;95425.00;;;;8351112;28;20939;-76
2022/12/12 02:33:34;;;;;;;27.23;11.30;;;;;-1.30;95435.00;;;;8346021;28;20197;-73
2022/12/12 02:37:41;;;;;;;27.73;11.93;;;;;-1.30;95427.00;;;;8341851;28;20196;-73
2022/12/12 02:41:51;;;;;;;25.67;11.47;;;;;-1.30;95426.00;;;;8345256;28;20201;-75
2022/12/12 02:45:58;;;;;;;23.93;10.13;;;;;-1.30;95437.00;;;;8336119;28;20197;-73
2022/12/12 02:50:08;;;;;;;25.93;11.30;;;;;-1.30;95432.00;;;;8353340;28;20225;-74
2022/12/12 02:54:14;;;;;;;27.37;11.07;;;;;-1.20;95429.00;;;;8349736;28;20262;-72
2022/12/12 02:58:19;;;;;;;23.73;10.50;;;;;-1.20;95424.00;;;;8350042;28;20752;-73
2022/12/12 03:07:45;;;;;;;22.20;10.10;;;;;-1.20;95430.00;;;;8361592;22;20266;-74
2022/12/12 03:07:48;;;;;;;21.43;9.77;;;;;-1.20;95422.00;;;;8348484;28;20224;-73
2022/12/12 03:12:01;;;;;;;28.97;11.23;;;;;-1.20;95443.00;;;;8350049;28;20223;-72
2022/12/12 03:16:23;;;;;;;24.50;9.97;;;;;-1.20;95435.00;;;;8343072;28;20197;-73
2022/12/12 03:20:30;;;;;;;24.97;10.27;;;;;-1.20;95441.00;;;;8346115;28;20196;-72
2022/12/12 03:24:44;;;;;;;24.90;10.67;;;;;-1.20;95439.00;;;;8351241;28;20202;-73
2022/12/12 03:28:49;;;;;;;28.37;10.97;;;;;-1.20;95435.00;;;;8347846;28;20256;-73
2022/12/12 03:32:58;;;;;;;26.23;10.13;;;;;-1.20;95431.00;;;;8345343;28;20247;-73
2022/12/12 03:37:07;;;;;;;30.00;12.13;;;;;-1.20;95437.00;;;;8349773;28;20205;-73
2022/12/12 03:41:17;;;;;;;28.17;11.40;;;;;-1.20;95441.00;;;;8343337;28;20808;-73
2022/12/12 03:45:25;;;;;;;27.47;11.07;;;;;-1.20;95442.00;;;;8336348;28;20205;-74
2022/12/12 03:49:31;;;;;;;27.40;12.27;;;;;-1.30;95432.00;;;;8272194;28;20332;-74
2022/12/12 03:53:40;;;;;;;29.00;11.20;;;;;-1.20;95433.00;;;;8283821;28;20237;-72
2022/12/12 03:57:50;;;;;;;31.10;12.03;;;;;-1.20;95439.00;;;;8292868;28;20199;-72
2022/12/12 04:01:58;;;;;;;26.37;11.90;;;;;-1.20;95433.00;;;;8282871;28;20226;-72
2022/12/12 04:15:03;;;;;;;23.67;10.53;;;;;-1.10;95441.00;;;;8278424;28;20205;-72
2022/12/12 04:19:11;;;;;;;22.97;10.30;;;;;-1.00;95444.00;;;;8274013;28;20276;-73
2022/12/12 04:23:26;;;;;;;21.10;9.50;;;;;-1.10;95443.00;;;;8281546;28;20203;-72
2022/12/12 04:27:34;;;;;;;23.87;9.97;;;;;-1.10;95443.00;;;;8269491;28;20225;-72
2022/12/12 04:31:41;;;;;;;21.73;8.73;;;;;-1.20;95445.00;;;;8269067;28;20203;-72
2022/12/12 04:35:59;;;;;;;22.37;8.97;;;;;-1.20;95439.00;;;;8258912;28;20322;-71
2022/12/12 04:40:06;;;;;;;21.40;8.77;;;;;-1.20;95447.00;;;;8264406;28;20214;-72
2022/12/12 04:44:12;;;;;;;21.80;8.80;;;;;-1.20;95443.00;;;;8267878;28;20260;-72
2022/12/12 04:48:21;;;;;;;22.23;9.40;;;;;-1.20;95447.00;;;;8276250;28;20230;-71
2022/12/12 04:52:26;;;;;;;21.53;9.13;;;;;-1.20;95444.00;;;;8275557;28;20198;-72
2022/12/12 04:56:31;;;;;;;19.37;9.40;;;;;-1.20;95449.00;;;;8278747;28;20819;-71
2022/12/12 05:00:41;;;;;;;21.70;9.00;;;;;-1.10;95443.00;;;;8280638;28;20206;-70
2022/12/12 05:04:52;;;;;;;18.87;8.07;;;;;-1.20;95454.00;;;;8279490;28;20292;-72
2022/12/12 05:08:57;;;;;;;12.93;6.53;;;;;-1.30;95473.00;;;;8282471;28;20622;-71
2022/12/12 05:13:01;;;;;;;21.27;9.87;;;;;-1.40;95469.00;;;;8275239;28;20342;-71
2022/12/12 05:17:11;;;;;;;26.57;10.63;;;;;-1.40;95467.00;;;;8281507;28;20214;-71
2022/12/12 05:21:16;;;;;;;23.00;7.93;;;;;-1.40;95468.00;;;;8275045;28;20233;-70
2022/12/12 05:25:19;;;;;;;19.33;7.80;;;;;-1.40;95471.00;;;;8276324;28;20190;-71
2022/12/12 05:29:22;;;;;;;21.60;9.80;;;;;-1.50;95485.00;;;;8275348;28;20237;-70
2022/12/12 05:33:25;;;;;;;27.17;10.20;;;;;-1.60;95480.00;;;;8273099;28;20198;-72
2022/12/12 05:37:30;;;;;;;25.80;10.40;;;;;-1.60;95480.00;;;;8278450;28;20653;-71
2022/12/12 05:41:33;;;;;;;22.77;9.73;;;;;-1.70;95487.00;;;;8280250;28;20738;-71
2022/12/12 05:45:36;;;;;;;23.83;10.93;;;;;-1.80;95492.00;;;;8277026;28;20788;-70
2022/12/12 05:49:39;;;;;;;26.77;9.87;;;;;-1.80;95496.00;;;;8283322;28;20233;-70
2022/12/12 05:53:44;;;;;;;29.60;12.17;;;;;-1.80;95495.00;;;;8277639;28;20636;-70
2022/12/12 05:57:47;;;;;;;25.17;10.60;;;;;-1.70;95495.00;;;;8285908;28;20203;-70
2022/12/12 06:01:51;;;;;;;21.03;9.47;;;;;-1.70;95502.00;;;;8279383;28;20833;-71
2022/12/12 06:05:54;;;;;;;29.63;11.60;;;;;-1.80;95496.00;;;;8277118;28;20202;-71
2022/12/12 06:09:58;;;;;;;30.07;11.40;;;;;-1.80;95497.00;;;;8280497;28;20226;-71
2022/12/12 06:14:01;;;;;;;28.27;11.50;;;;;-1.90;95501.00;;;;8271097;28;20766;-71
2022/12/12 06:18:04;;;;;;;24.87;11.37;;;;;-2.10;95510.00;;;;8279781;28;20262;-70
2022/12/12 06:22:08;;;;;;;24.30;10.47;;;;;-2.20;95511.00;;;;8282155;28;20232;-70
2022/12/12 06:26:14;;;;;;;22.07;9.23;;;;;-2.30;95511.00;;;;8277596;28;20206;-70
2022/12/12 06:30:18;;;;;;;22.43;9.07;;;;;-2.40;95517.00;;;;8273293;28;20226;-70
2022/12/12 06:34:21;;;;;;;18.50;7.70;;;;;-2.50;95517.00;;;;8269537;28;20204;-71
2022/12/12 06:38:24;;;;;;;14.70;7.80;;;;;-2.70;95517.00;;;;8273853;28;20206;-70
2022/12/12 06:42:29;;;;;;;20.27;8.07;;;;;-2.90;95514.00;;;;8272841;28;20199;-70
2022/12/12 06:46:32;;;;;;;20.97;7.80;;;;;-3.10;95521.00;;;;8270203;28;20194;-71
2022/12/12 06:50:39;;;;;;;29.23;7.43;;;;;-3.50;95529.00;;;;8274579;28;20217;-72
2022/12/12 06:54:42;;;;;;;20.67;8.43;;;;;-3.80;95529.00;;;;8274057;28;20206;-71
2022/12/12 06:58:47;;;;;;;16.17;7.47;;;;;-4.10;95528.00;;;;8267942;28;20203;-71
2022/12/12 07:02:50;;;;;;;18.87;7.17;;;;;-4.40;95534.00;;;;8269200;28;20230;-71
2022/12/12 07:06:54;;;;;;;20.03;7.40;;;;;-4.80;95538.00;;;;8271944;28;20230;-72
2022/12/12 07:11:02;;;;;;;19.13;7.70;;;;;-5.00;95541.00;;;;8270385;28;20229;-71
2022/12/12 07:15:07;;;;;;;19.60;8.33;;;;;-5.20;95545.00;;;;8272917;28;20683;-71
2022/12/12 07:19:10;;;;;;;27.43;7.60;;;;;-5.40;95536.00;;;;8271782;28;20199;-71
2022/12/12 07:23:14;;;;;;;21.67;8.27;;;;;-5.50;95536.00;;;;8268344;28;20202;-71
2022/12/12 07:27:17;;;;;;;19.77;7.97;;;;;-5.50;95552.00;;;;8283103;28;20194;-72
2022/12/12 07:31:25;;;;;;;22.77;8.10;;;;;-5.40;95547.00;;;;8273713;28;20228;-71
2022/12/12 07:35:28;;;;;;;16.03;7.23;;;;;-5.40;95549.00;;;;8277020;28;20198;-71
2022/12/12 07:39:32;;;;;;;22.60;7.97;;;;;-5.40;95550.00;;;;8274715;28;20205;-71
2022/12/12 07:43:36;;;;;;;24.90;9.60;;;;;-5.40;95556.00;;;;8277749;28;21043;-71
2022/12/12 07:47:47;;;;;;;26.57;8.77;;;;;-5.20;95561.00;;;;8273214;28;20202;-72
2022/12/12 07:51:51;;;;;;;20.17;8.43;;;;;-5.00;95566.00;;;;8275564;28;20222;-71
2022/12/12 07:55:55;;;;;;;29.80;10.00;;;;;-4.70;95563.00;;;;8269683;28;20249;-71
2022/12/12 07:59:58;;;;;;;33.93;10.83;;;;;-4.40;95569.00;;;;8261381;28;20210;-72
2022/12/12 08:04:03;;;;;;;28.43;10.03;;;;;-4.10;95583.00;;;;8271473;28;20232;-72
2022/12/12 08:08:09;;;;;;;24.83;9.73;;;;;-3.80;95581.00;;;;8269778;28;20226;-72
2022/12/12 08:12:13;;;;;;;22.50;9.00;;;;;-3.70;95582.00;;;;8277224;28;20232;-73
2022/12/12 08:16:18;;;;;;;26.00;8.97;;;;;-3.60;95592.00;;;;8276012;28;20521;-73
2022/12/12 08:20:23;;;;;;;26.40;10.17;;;;;-3.50;95592.00;;;;8267760;28;20209;-73
2022/12/12 08:24:27;;;;;;;22.10;9.43;;;;;-3.50;95591.00;;;;8272186;28;20194;-72
2022/12/12 08:29:01;;;;;;;22.83;10.00;;;;;-3.50;95610.00;;;;8273068;28;20636;-72
2022/12/12 08:33:38;;;;;;;20.80;8.33;;;;;-3.80;95610.00;;;;8272303;28;20206;-72
2022/12/12 08:38:16;;;;;;;24.00;9.70;;;;;-3.90;95603.00;;;;8273764;28;20221;-72
2022/12/12 08:42:50;;;;;;;23.60;8.97;;;;;-3.90;95612.00;;;;8271738;28;20602;-73
2022/12/12 08:47:28;;;;;;;22.27;9.93;;;;;-3.80;95609.00;;;;8272461;28;20636;-72
2022/12/12 08:52:08;;;;;;;22.10;9.10;;;;;-3.50;95608.00;;;;8271838;28;20230;-73
2022/12/12 08:56:43;;;;;;;23.73;10.00;;;;;-3.20;95614.00;;;;8272265;28;20191;-73
2022/12/12 09:01:17;;;;;;;21.10;9.33;;;;;-2.90;95620.00;;;;8271710;28;20230;-72
2022/12/12 09:05:20;;;;;;;25.23;10.07;;;;;-2.50;95632.00;;;;8272799;28;20231;-71
2022/12/12 09:09:57;;;;;;;23.00;10.73;;;;;-2.30;95638.00;;;;8271819;28;20714;-72
2022/12/12 09:14:33;;;;;;;28.13;10.90;;;;;-2.00;95643.00;;;;8271731;28;20671;-72
2022/12/12 09:19:12;;;;;;;21.90;10.23;;;;;-1.80;95638.00;;;;8270940;28;20245;-71
2022/12/12 09:23:46;;;;;;;25.77;10.40;;;;;-1.70;95641.00;;;;8271216;28;20609;-72
2022/12/12 09:27:49;;;;;;;22.70;10.60;;;;;-1.50;95654.00;;;;8270198;28;20198;-72
2022/12/12 09:31:52;;;;;;;24.67;10.73;;;;;-1.40;95653.00;;;;8270287;28;20234;-72
2022/12/12 09:36:26;;;;;;;27.30;10.63;;;;;-1.20;95648.00;;;;8269360;28;20664;-73
2022/12/12 09:41:11;;;;;;;32.83;12.53;;;;;-1.00;95655.00;;;;8270751;28;20204;-73
2022/12/12 09:45:39;;;;;;;28.63;11.43;;;;;-0.80;95655.00;;;;8271719;28;20679;-73
2022/12/12 09:50:16;;;;;;;24.67;10.87;;;;;-0.50;95657.00;;;;8269617;28;20225;-72
2022/12/12 09:54:51;;;;;;;23.40;10.60;;;;;-0.20;95649.00;;;;8269918;28;20192;-71
2022/12/12 09:59:31;;;;;;;21.13;8.73;;;;;0.00;95657.00;;;;8270395;28;20195;-72
2022/12/12 10:04:02;;;;;;;25.60;9.70;;;;;0.00;95653.00;;;;8270154;28;20279;-72
2022/12/12 10:13:37;;;;;;;19.43;9.00;;;;;0.10;95653.00;;;;8270333;28;20206;-73
2022/12/12 10:18:17;;;;;;;18.10;8.70;;;;;0.10;95653.00;;;;8269096;28;20200;-74
2022/12/12 10:22:55;;;;;;;19.53;9.63;;;;;0.10;95654.00;;;;8268839;28;20252;-73
2022/12/12 10:27:29;;;;;;;18.40;8.00;;;;;0.00;95656.00;;;;8267123;28;20184;-72
2022/12/12 10:32:10;;;;;;;19.63;9.63;;;;;0.00;95665.00;;;;8269534;28;20246;-73
2022/12/12 10:36:49;;;;;;;17.53;9.03;;;;;-0.20;95669.00;;;;8268176;28;20195;-73
2022/12/12 10:41:19;;;;;;;21.83;9.43;;;;;-0.30;95663.00;;;;8268353;28;20198;-73
2022/12/12 10:45:43;;;;;;;23.73;10.33;;;;;-0.20;95664.00;;;;8267892;28;20636;-74
2022/12/12 10:49:48;;;;;;;24.43;9.77;;;;;-0.20;95661.00;;;;8267929;28;20227;-74
2022/12/12 10:54:25;;;;;;;24.90;10.73;;;;;-0.30;95659.00;;;;8269985;28;20703;-76
2022/12/12 10:58:57;;;;;;;25.77;10.50;;;;;-0.20;95657.00;;;;8267929;28;20200;-73
2022/12/12 11:03:32;;;;;;;27.40;11.87;;;;;-0.10;95649.00;;;;8267388;28;20263;-73
2022/12/12 11:08:06;;;;;;;28.00;10.70;;;;;0.10;95649.00;;;;8267313;28;20204;-73
2022/12/12 11:17:42;;;;;;;23.83;10.33;;;;;0.70;95647.00;;;;8264698;28;20207;-72
2022/12/12 11:22:16;;;;;;;24.97;11.47;;;;;0.60;95644.00;;;;8267930;28;20227;-72
2022/12/12 11:26:56;;;;;;;22.33;9.83;;;;;0.60;95643.00;;;;8267169;28;20313;-71
2022/12/12 11:31:31;;;;;;;24.23;10.57;;;;;0.60;95649.00;;;;8266426;28;20228;-72
2022/12/12 11:36:07;;;;;;;21.70;9.23;;;;;0.60;95642.00;;;;8267404;28;20532;-74
2022/12/12 11:40:45;;;;;;;16.87;8.57;;;;;0.70;95652.00;;;;8266703;28;20203;-74
2022/12/12 11:45:23;;;;;;;19.67;9.70;;;;;0.80;95658.00;;;;8267551;28;20222;-74
2022/12/12 11:49:57;;;;;;;20.27;8.50;;;;;1.00;95663.00;;;;8265826;28;20207;-73
2022/12/12 11:54:36;;;;;;;16.03;7.47;;;;;0.90;95656.00;;;;8266682;28;20588;-75
2022/12/12 11:59:21;;;;;;;15.87;7.97;;;;;0.70;95663.00;;;;8266011;28;20200;-74
2022/12/12 12:03:57;;;;;;;17.47;7.57;;;;;0.60;95647.00;;;;8267181;28;20728;-74
2022/12/12 12:08:28;;;;;;;17.67;8.23;;;;;0.70;95650.00;;;;8266795;28;20286;-75
2022/12/12 12:12:47;;;;;;;15.57;7.97;;;;;0.80;95651.00;;;;8266816;28;20228;-75
2022/12/12 12:17:19;;;;;;;16.13;6.57;;;;;0.90;95646.00;;;;8265968;28;20181;-74
2022/12/12 12:21:47;;;;;;;14.07;7.60;;;;;0.80;95644.00;;;;8264812;28;20203;-74
2022/12/12 12:26:25;;;;;;;14.20;7.23;;;;;0.80;95645.00;;;;8266003;28;20556;-74
2022/12/12 12:31:02;;;;;;;9.80;5.70;;;;;0.90;95649.00;;;;8266512;28;20227;-73
2022/12/12 12:35:35;;;;;;;15.27;6.23;;;;;1.00;95651.00;;;;8265201;28;20208;-72
2022/12/12 12:40:12;;;;;;;12.00;5.20;;;;;0.90;95654.00;;;;8265659;28;20659;-73
2022/12/12 12:44:31;;;;;;;13.33;5.77;;;;;0.90;95664.00;;;;8265417;28;20294;-76
2022/12/12 12:48:57;;;;;;;11.00;5.80;;;;;0.90;95660.00;;;;8264768;28;20200;-75
2022/12/12 12:53:32;;;;;;;12.80;7.77;;;;;0.70;95662.00;;;;8265893;28;20231;-73
2022/12/12 12:58:06;;;;;;;14.77;9.03;;;;;0.50;95653.00;;;;8265375;28;20200;-73
2022/12/12 13:02:19;;;;;;;377.23;144.77;;;;;0.30;95644.00;;;;8265325;28;20662;-73
2022/12/12 13:06:52;;;;;;;328.90;108.27;;;;;0.20;95640.00;;;;8267771;28;20218;-73
2022/12/12 13:16:30;;;;;;;16.50;9.77;;;;;0.10;95650.00;;;;8271478;28;20201;-72
2022/12/12 13:21:06;;;;;;;20.07;9.63;;;;;0.00;95642.00;;;;8271436;28;20199;-71
2022/12/12 13:25:44;;;;;;;16.07;7.93;;;;;0.00;95647.00;;;;8271436;28;20192;-72
2022/12/12 13:29:52;;;;;;;15.00;7.63;;;;;-0.10;95657.00;;;;8271080;28;20637;-71
2022/12/12 13:34:24;;;;;;;16.17;7.97;;;;;-0.10;95652.00;;;;8271152;28;20227;-72
2022/12/12 13:39:02;;;;;;;22.03;13.43;;;;;-0.10;95652.00;;;;8270684;28;20334;-72
2022/12/12 13:43:24;;;;;;;12.73;7.17;;;;;-0.20;95662.00;;;;8270852;28;20584;-71
2022/12/12 13:48:06;;;;;;;24.03;16.07;;;;;-0.30;95657.00;;;;8269190;28;20254;-72
2022/12/12 13:52:39;;;;;;;15.53;8.63;;;;;-0.40;95655.00;;;;8266724;28;20570;-71
2022/12/12 13:57:34;;;;;;;18.23;10.50;;;;;-0.50;95656.00;;;;8270182;28;20203;-72
2022/12/12 14:01:40;;;;;;;14.43;8.03;;;;;-0.50;95660.00;;;;8170357;29;20209;-73
2022/12/12 14:05:44;;;;;;;12.80;6.87;;;;;-0.50;95667.00;;;;8215519;28;20208;-73
2022/12/12 14:09:49;;;;;;;15.63;7.33;;;;;-0.60;95663.00;;;;8269595;28;20215;-72
2022/12/12 14:14:04;;;;;;;13.90;6.37;;;;;-0.60;95661.00;;;;8270212;28;20344;-72
2022/12/12 14:18:20;;;;;;;12.43;6.27;;;;;-0.70;95671.00;;;;8268109;28;20208;-71
2022/12/12 14:23:23;;;;;;;10.43;5.70;;;;;-0.80;95668.00;;;;8270614;28;20281;-72
2022/12/12 14:28:03;;;;;;;9.90;5.90;;;;;-1.00;95669.00;;;;8269684;28;20207;-71
2022/12/12 14:37:44;;;;;;;11.77;6.20;;;;;-1.20;95676.00;;;;8269579;28;20513;-72
2022/12/12 14:41:54;;;;;;;13.57;6.87;;;;;-1.30;95673.00;;;;8268312;28;20277;-71
2022/12/12 14:46:29;;;;;;;11.40;6.07;;;;;-1.50;95674.00;;;;8269606;28;20204;-71
2022/12/12 14:50:32;;;;;;;18.87;7.10;;;;;-1.70;95678.00;;;;8268774;28;20660;-70
2022/12/12 14:55:09;;;;;;;16.17;7.17;;;;;-1.90;95681.00;;;;8267702;28;20202;-71
2022/12/12 14:59:47;;;;;;;12.47;6.73;;;;;-2.00;95679.00;;;;8268301;28;20643;-71
2022/12/12 15:03:51;;;;;;;12.33;7.00;;;;;-2.20;95676.00;;;;8268120;28;20217;-71
2022/12/12 15:08:28;;;;;;;15.20;8.00;;;;;-2.40;95677.00;;;;8267598;28;20306;-71
2022/12/12 15:13:14;;;;;;;14.53;7.43;;;;;-2.60;95669.00;;;;8267782;28;20608;-72
2022/12/12 15:17:45;;;;;;;22.30;8.80;;;;;-2.90;95666.00;;;;8268139;28;20605;-72
2022/12/12 15:21:48;;;;;;;18.67;8.70;;;;;-3.10;95665.00;;;;8267858;28;20218;-71
2022/12/12 15:25:54;;;;;;;17.40;8.43;;;;;-3.30;95675.00;;;;8266058;28;20205;-71
2022/12/12 15:30:31;;;;;;;16.23;8.30;;;;;-3.70;95677.00;;;;8266309;28;20191;-70
2022/12/12 15:35:14;;;;;;;18.37;8.30;;;;;-4.00;95666.00;;;;8267232;28;20613;-71
2022/12/12 15:39:41;;;;;;;20.50;8.53;;;;;-4.10;95669.00;;;;8266529;28;20620;-71
2022/12/12 15:44:19;;;;;;;18.03;8.70;;;;;-4.30;95670.00;;;;8266358;28;20201;-71
2022/12/12 15:48:53;;;;;;;20.60;9.03;;;;;-4.50;95665.00;;;;8266600;28;20282;-72
2022/12/12 15:53:30;;;;;;;25.30;9.73;;;;;-4.70;95667.00;;;;8266302;28;20576;-72
2022/12/12 15:58:20;;;;;;;21.77;9.73;;;;;-4.90;95671.00;;;;8267868;28;20209;-72
2022/12/12 16:02:58;;;;;;;33.97;12.63;;;;;-5.10;95662.00;;;;8266302;28;20230;-72
2022/12/12 16:07:21;;;;;;;30.80;11.50;;;;;-5.00;95677.00;;;;8267033;28;20211;-71
2022/12/12 16:16:55;;;;;;;31.47;11.90;;;;;-5.00;95670.00;;;;8264323;28;20205;-70
2022/12/12 16:21:41;;;;;;;29.00;11.37;;;;;-5.10;95681.00;;;;8265674;28;20256;-68
2022/12/12 16:26:11;;;;;;;29.93;11.73;;;;;-5.10;95684.00;;;;8263956;28;20206;-69
2022/12/12 16:30:53;;;;;;;30.33;11.77;;;;;-5.20;95676.00;;;;8266836;28;20297;-71
2022/12/12 16:35:27;;;;;;;26.63;11.00;;;;;-5.40;95682.00;;;;8265207;28;20285;-70
2022/12/12 16:40:04;;;;;;;25.47;10.00;;;;;-5.60;95677.00;;;;8266298;28;20230;-74
2022/12/12 16:44:42;;;;;;;31.23;11.23;;;;;-5.70;95674.00;;;;8272469;28;20201;-75
2022/12/12 16:49:19;;;;;;;29.43;12.20;;;;;-5.90;95676.00;;;;8270624;28;20205;-77
2022/12/12 16:53:56;;;;;;;30.70;11.63;;;;;-5.90;95689.00;;;;8271778;28;20293;-74
2022/12/12 16:58:33;;;;;;;34.83;15.50;;;;;-5.90;95680.00;;;;8271749;28;20642;-73
2022/12/12 17:03:13;;;;;;;61.77;23.27;;;;;-5.80;95678.00;;;;8271905;28;20220;-74
2022/12/12 17:07:49;;;;;;;32.97;13.33;;;;;-5.60;95686.00;;;;8270454;28;20198;-74
2022/12/12 17:17:24;;;;;;;36.40;13.13;;;;;-5.70;95697.00;;;;8270622;28;20198;-74
2022/12/12 17:21:29;;;;;;;39.53;16.67;;;;;-5.70;95690.00;;;;8272131;28;20541;-74
2022/12/12 17:26:03;;;;;;;27.47;11.70;;;;;-5.80;95698.00;;;;8270682;28;20203;-75
2022/12/12 17:30:37;;;;;;;24.97;10.97;;;;;-5.90;95702.00;;;;8271000;28;20227;-75
2022/12/12 17:35:14;;;;;;;31.30;10.93;;;;;-6.10;95701.00;;;;8271079;28;20676;-75
2022/12/12 17:39:52;;;;;;;26.23;10.57;;;;;-6.30;95706.00;;;;8270629;28;20198;-76
2022/12/12 17:44:26;;;;;;;26.63;9.73;;;;;-6.50;95706.00;;;;8270298;28;20193;-78
2022/12/12 17:49:03;;;;;;;28.93;10.57;;;;;-6.70;95703.00;;;;8270202;28;20202;-76
2022/12/12 17:53:38;;;;;;;26.73;11.40;;;;;-6.80;95702.00;;;;8270381;28;20671;-75
2022/12/12 17:58:15;;;;;;;44.37;15.60;;;;;-6.80;95709.00;;;;8269505;28;20254;-74
2022/12/12 18:02:22;;;;;;;32.53;12.80;;;;;-6.80;95722.00;;;;8269343;28;20225;-73
2022/12/12 18:06:26;;;;;;;34.23;13.63;;;;;-6.90;95717.00;;;;8268506;28;20209;-73
2022/12/12 18:10:29;;;;;;;28.27;11.43;;;;;-7.00;95714.00;;;;8269839;28;20214;-74
2022/12/12 18:15:07;;;;;;;37.43;13.83;;;;;-7.10;95708.00;;;;8269333;28;20685;-72
2022/12/12 18:19:45;;;;;;;30.47;11.63;;;;;-7.20;95706.00;;;;8269426;28;20197;-74
2022/12/12 18:24:20;;;;;;;31.17;12.60;;;;;-7.20;95714.00;;;;8269141;28;20544;-74
2022/12/12 18:28:56;;;;;;;34.87;12.93;;;;;-7.20;95701.00;;;;8269063;28;20279;-74
2022/12/12 18:33:34;;;;;;;34.60;14.60;;;;;-7.20;95703.00;;;;8268280;28;20232;-72
2022/12/12 18:37:38;;;;;;;34.20;14.03;;;;;-7.20;95705.00;;;;8270132;28;20217;-72
2022/12/12 18:42:12;;;;;;;43.23;16.13;;;;;-7.20;95704.00;;;;8268507;28;20209;-72
2022/12/12 18:46:50;;;;;;;45.93;16.83;;;;;-7.10;95704.00;;;;8269029;28;20206;-72
2022/12/12 18:51:27;;;;;;;33.57;13.07;;;;;-7.10;95716.00;;;;8268797;28;20547;-72
2022/12/12 18:56:06;;;;;;;36.00;13.70;;;;;-7.20;95711.00;;;;8268626;28;20576;-71
2022/12/12 19:00:41;;;;;;;37.20;14.73;;;;;-7.20;95719.00;;;;8267382;28;20233;-71
2022/12/12 19:05:17;;;;;;;39.57;13.80;;;;;-7.40;95723.00;;;;8267621;28;20217;-70
2022/12/12 19:09:52;;;;;;;39.10;15.30;;;;;-7.60;95720.00;;;;8267596;28;20656;-70
2022/12/12 19:13:57;;;;;;;36.20;13.70;;;;;-7.60;95721.00;;;;8267316;28;20440;-72
2022/12/12 19:18:31;;;;;;;44.07;16.17;;;;;-7.50;95720.00;;;;8267783;28;20194;-71
2022/12/12 19:22:34;;;;;;;33.77;14.53;;;;;-7.40;95727.00;;;;8266932;28;20205;-72
2022/12/12 19:27:11;;;;;;;38.10;14.87;;;;;-7.40;95709.00;;;;8267080;28;20190;-73
2022/12/12 19:31:16;;;;;;;41.27;12.33;;;;;-7.50;95719.00;;;;8266733;28;20204;-72
2022/12/12 19:35:50;;;;;;;33.60;12.97;;;;;-7.70;95726.00;;;;8267385;28;20248;-73
2022/12/12 19:40:27;;;;;;;27.90;12.17;;;;;-7.90;95722.00;;;;8266033;28;20201;-72
2022/12/12 19:44:30;;;;;;;33.03;12.53;;;;;-7.90;95725.00;;;;8267081;28;20675;-71
2022/12/12 19:49:09;;;;;;;40.67;14.90;;;;;-7.90;95728.00;;;;8266590;28;20208;-73
2022/12/12 19:53:44;;;;;;;37.30;13.30;;;;;-7.90;95718.00;;;;8266595;28;20231;-73
2022/12/12 19:58:21;;;;;;;35.00;12.27;;;;;-7.80;95715.00;;;;8266453;28;20603;-72
2022/12/12 20:02:57;;;;;;;33.93;12.13;;;;;-7.90;95721.00;;;;8266749;28;20267;-73
2022/12/12 20:07:36;;;;;;;32.47;12.83;;;;;-7.80;95717.00;;;;8265969;28;20596;-72
2022/12/12 20:11:40;;;;;;;36.07;12.17;;;;;-7.90;95704.00;;;;8266532;28;20259;-72
2022/12/12 20:16:18;;;;;;;33.87;12.57;;;;;-7.90;95701.00;;;;8266229;28;20228;-73
2022/12/12 20:20:55;;;;;;;61.23;28.77;;;;;-7.90;95715.00;;;;8266919;28;20634;-72
2022/12/12 20:25:30;;;;;;;35.07;15.23;;;;;-7.80;95719.00;;;;8265475;28;20197;-72
2022/12/12 20:29:33;;;;;;;40.47;15.60;;;;;-7.90;95724.00;;;;8266796;28;20198;-73
2022/12/12 20:34:11;;;;;;;37.20;14.93;;;;;-7.90;95734.00;;;;8266445;28;20230;-73
2022/12/12 20:38:46;;;;;;;40.50;14.97;;;;;-8.00;95729.00;;;;8265674;28;20195;-73
2022/12/12 20:43:25;;;;;;;31.90;13.57;;;;;-8.10;95725.00;;;;8265754;28;20205;-73
2022/12/12 20:47:59;;;;;;;38.13;13.37;;;;;-8.30;95719.00;;;;8266484;28;20266;-72
2022/12/12 20:52:09;;;;;;;33.10;14.07;;;;;-8.30;95720.00;;;;8265823;28;20195;-73
2022/12/12 20:56:46;;;;;;;34.53;13.97;;;;;-8.30;95722.00;;;;8265378;28;20227;-73
2022/12/12 21:00:50;;;;;;;40.00;14.93;;;;;-8.30;95720.00;;;;8265940;28;20696;-74
2022/12/12 21:05:27;;;;;;;37.60;15.60;;;;;-8.20;95724.00;;;;8264824;28;20224;-73
2022/12/12 21:09:30;;;;;;;35.93;13.40;;;;;-8.30;95719.00;;;;8265357;28;20201;-73
2022/12/12 21:13:33;;;;;;;38.33;13.93;;;;;-8.50;95721.00;;;;8266020;28;20251;-73
2022/12/12 21:17:38;;;;;;;38.40;14.60;;;;;-8.60;95727.00;;;;8265636;28;20205;-73
2022/12/12 21:22:12;;;;;;;43.03;14.30;;;;;-8.60;95724.00;;;;8265360;28;20643;-71
2022/12/12 21:26:17;;;;;;;40.17;14.20;;;;;-8.60;95726.00;;;;8265751;28;20669;-70
2022/12/12 21:30:51;;;;;;;44.87;14.53;;;;;-8.60;95719.00;;;;8270671;28;20246;-70
2022/12/12 21:34:56;;;;;;;40.57;13.70;;;;;-8.70;95730.00;;;;8270794;28;20223;-69
2022/12/12 21:39:01;;;;;;;34.10;12.37;;;;;-8.80;95723.00;;;;8270551;28;20244;-70
2022/12/12 21:43:04;;;;;;;40.83;13.97;;;;;-8.90;95736.00;;;;8271914;28;20203;-70
2022/12/12 21:47:41;;;;;;;43.80;14.00;;;;;-8.90;95725.00;;;;8270868;28;20256;-69
2022/12/12 21:51:46;;;;;;;39.70;14.87;;;;;-9.00;95730.00;;;;8271131;28;20203;-70
2022/12/12 21:55:49;;;;;;;38.53;13.53;;;;;-9.00;95718.00;;;;8269777;28;20235;-69